sensor_id;sensor_type;location;lat;lon;timestamp;P1;durP1;ratioP1;P2;durP2;ratioP2
25854;SDS011;13680;49.936;11.344;2023-09-19T00:01:31;5.47;;;1.88;;
25854;SDS011;13680;49.936;11.344;2023-09-19T00:03:57;4.68;;;2.33;;
25854;SDS011;13680;49.936;11.344;2023-09-19T00:06:23;3.88;;;1.60;;
25854;SDS011;13680;49.936;11.344;2023-09-19T00:08:51;6.38;;;2.22;;
25854;SDS011;13680;49.936;11.344;2023-09-19T00:11:17;3.92;;;1.95;;
25854;SDS011;13680;49.936;11.344;2023-09-19T00:13:42;3.33;;;2.00;;
25854;SDS011;13680;49.936;11.344;2023-09-19T00:16:08;4.32;;;1.70;;
25854;SDS011;13680;49.936;11.344;2023-09-19T00:18:39;4.53;;;1.95;;
25854;SDS011;13680;49.936;11.344;2023-09-19T00:21:04;5.20;;;1.85;;
25854;SDS011;13680;49.936;11.344;2023-09-19T00:23:30;10.40;;;2.15;;
25854;SDS011;13680;49.936;11.344;2023-09-19T00:25:59;2.63;;;1.75;;
25854;SDS011;13680;49.936;11.344;2023-09-19T00:28:24;5.80;;;2.10;;
25854;SDS011;13680;49.936;11.344;2023-09-19T00:30:50;3.40;;;2.55;;
25854;SDS011;13680;49.936;11.344;2023-09-19T00:33:15;6.00;;;1.83;;
25854;SDS011;13680;49.936;11.344;2023-09-19T00:35:53;7.70;;;2.08;;
25854;SDS011;13680;49.936;11.344;2023-09-19T00:38:19;6.40;;;2.53;;
25854;SDS011;13680;49.936;11.344;2023-09-19T00:40:47;13.25;;;2.53;;
25854;SDS011;13680;49.936;11.344;2023-09-19T00:43:14;4.82;;;2.08;;
25854;SDS011;13680;49.936;11.344;2023-09-19T00:45:44;10.55;;;2.40;;
25854;SDS011;13680;49.936;11.344;2023-09-19T00:48:10;5.60;;;1.80;;
25854;SDS011;13680;49.936;11.344;2023-09-19T00:50:36;3.17;;;1.80;;
25854;SDS011;13680;49.936;11.344;2023-09-19T00:53:05;3.80;;;1.92;;
25854;SDS011;13680;49.936;11.344;2023-09-19T00:55:33;4.32;;;2.08;;
25854;SDS011;13680;49.936;11.344;2023-09-19T00:57:59;4.35;;;2.17;;
25854;SDS011;13680;49.936;11.344;2023-09-19T01:00:25;3.70;;;1.90;;
25854;SDS011;13680;49.936;11.344;2023-09-19T01:02:51;8.35;;;2.40;;
25854;SDS011;13680;49.936;11.344;2023-09-19T01:05:16;6.05;;;2.42;;
25854;SDS011;13680;49.936;11.344;2023-09-19T01:07:43;5.28;;;1.88;;
25854;SDS011;13680;49.936;11.344;2023-09-19T01:10:14;8.05;;;2.75;;
25854;SDS011;13680;49.936;11.344;2023-09-19T01:16:02;5.75;;;2.20;;
25854;SDS011;13680;49.936;11.344;2023-09-19T01:24:17;5.30;;;2.08;;
25854;SDS011;13680;49.936;11.344;2023-09-19T01:29:42;7.05;;;2.50;;
25854;SDS011;13680;49.936;11.344;2023-09-19T01:32:11;6.18;;;2.50;;
25854;SDS011;13680;49.936;11.344;2023-09-19T01:35:13;5.90;;;2.17;;
25854;SDS011;13680;49.936;11.344;2023-09-19T01:51:00;4.10;;;1.73;;
25854;SDS011;13680;49.936;11.344;2023-09-19T01:53:35;3.88;;;2.08;;
25854;SDS011;13680;49.936;11.344;2023-09-19T01:56:05;9.80;;;2.05;;
25854;SDS011;13680;49.936;11.344;2023-09-19T01:58:39;3.90;;;2.28;;
25854;SDS011;13680;49.936;11.344;2023-09-19T02:01:11;5.07;;;2.13;;
25854;SDS011;13680;49.936;11.344;2023-09-19T02:03:40;3.05;;;1.98;;
25854;SDS011;13680;49.936;11.344;2023-09-19T02:06:06;3.42;;;1.85;;
25854;SDS011;13680;49.936;11.344;2023-09-19T02:08:36;4.78;;;1.90;;
25854;SDS011;13680;49.936;11.344;2023-09-19T02:11:02;9.82;;;2.28;;
25854;SDS011;13680;49.936;11.344;2023-09-19T02:13:27;5.57;;;1.92;;
25854;SDS011;13680;49.936;11.344;2023-09-19T02:15:53;10.13;;;2.33;;
25854;SDS011;13680;49.936;11.344;2023-09-19T02:18:19;5.93;;;2.10;;
25854;SDS011;13680;49.936;11.344;2023-09-19T02:20:44;2.60;;;1.70;;
25854;SDS011;13680;49.936;11.344;2023-09-19T02:23:11;4.15;;;2.42;;
25854;SDS011;13680;49.936;11.344;2023-09-19T02:25:38;5.47;;;2.03;;
25854;SDS011;13680;49.936;11.344;2023-09-19T02:28:05;3.70;;;2.40;;
25854;SDS011;13680;49.936;11.344;2023-09-19T02:30:31;8.20;;;2.38;;
25854;SDS011;13680;49.936;11.344;2023-09-19T02:32:56;4.55;;;2.20;;
25854;SDS011;13680;49.936;11.344;2023-09-19T02:35:22;6.22;;;1.90;;
25854;SDS011;13680;49.936;11.344;2023-09-19T02:37:47;4.40;;;2.17;;
25854;SDS011;13680;49.936;11.344;2023-09-19T02:40:13;3.50;;;1.90;;
25854;SDS011;13680;49.936;11.344;2023-09-19T02:42:48;5.95;;;1.88;;
25854;SDS011;13680;49.936;11.344;2023-09-19T02:45:17;4.45;;;2.10;;
25854;SDS011;13680;49.936;11.344;2023-09-19T02:47:44;2.80;;;1.90;;
25854;SDS011;13680;49.936;11.344;2023-09-19T02:50:10;4.53;;;2.13;;
25854;SDS011;13680;49.936;11.344;2023-09-19T02:52:36;2.03;;;1.67;;
25854;SDS011;13680;49.936;11.344;2023-09-19T02:55:02;6.82;;;1.73;;
25854;SDS011;13680;49.936;11.344;2023-09-19T02:57:30;4.75;;;2.10;;
25854;SDS011;13680;49.936;11.344;2023-09-19T02:59:59;7.07;;;1.73;;
25854;SDS011;13680;49.936;11.344;2023-09-19T03:02:31;5.38;;;1.75;;
25854;SDS011;13680;49.936;11.344;2023-09-19T03:04:59;6.22;;;1.80;;
25854;SDS011;13680;49.936;11.344;2023-09-19T03:07:25;4.35;;;1.83;;
25854;SDS011;13680;49.936;11.344;2023-09-19T03:09:50;7.80;;;2.00;;
25854;SDS011;13680;49.936;11.344;2023-09-19T03:12:18;3.17;;;1.70;;
25854;SDS011;13680;49.936;11.344;2023-09-19T03:14:43;3.10;;;1.73;;
25854;SDS011;13680;49.936;11.344;2023-09-19T03:17:08;6.75;;;1.88;;
25854;SDS011;13680;49.936;11.344;2023-09-19T03:19:34;3.45;;;1.88;;
25854;SDS011;13680;49.936;11.344;2023-09-19T03:21:59;1.95;;;1.70;;
25854;SDS011;13680;49.936;11.344;2023-09-19T03:24:25;8.02;;;1.92;;
25854;SDS011;13680;49.936;11.344;2023-09-19T03:26:51;3.50;;;1.58;;
25854;SDS011;13680;49.936;11.344;2023-09-19T03:29:17;7.47;;;2.47;;
25854;SDS011;13680;49.936;11.344;2023-09-19T03:31:42;3.33;;;1.75;;
25854;SDS011;13680;49.936;11.344;2023-09-19T03:34:08;3.42;;;1.80;;
25854;SDS011;13680;49.936;11.344;2023-09-19T03:36:34;2.80;;;1.58;;
25854;SDS011;13680;49.936;11.344;2023-09-19T03:38:59;8.20;;;1.90;;
25854;SDS011;13680;49.936;11.344;2023-09-19T03:41:25;4.72;;;2.03;;
25854;SDS011;13680;49.936;11.344;2023-09-19T03:43:50;6.00;;;1.60;;
25854;SDS011;13680;49.936;11.344;2023-09-19T03:46:15;2.80;;;1.67;;
25854;SDS011;13680;49.936;11.344;2023-09-19T03:48:41;3.78;;;2.15;;
25854;SDS011;13680;49.936;11.344;2023-09-19T03:51:06;1.90;;;1.60;;
25854;SDS011;13680;49.936;11.344;2023-09-19T03:53:31;7.00;;;1.83;;
25854;SDS011;13680;49.936;11.344;2023-09-19T03:55:57;3.72;;;1.83;;
25854;SDS011;13680;49.936;11.344;2023-09-19T03:58:22;3.28;;;1.70;;
25854;SDS011;13680;49.936;11.344;2023-09-19T04:00:48;6.80;;;1.98;;
25854;SDS011;13680;49.936;11.344;2023-09-19T04:03:14;5.57;;;1.40;;
25854;SDS011;13680;49.936;11.344;2023-09-19T04:05:45;4.82;;;2.08;;
25854;SDS011;13680;49.936;11.344;2023-09-19T04:08:12;3.45;;;1.90;;
25854;SDS011;13680;49.936;11.344;2023-09-19T04:10:37;4.05;;;1.85;;
25854;SDS011;13680;49.936;11.344;2023-09-19T04:13:03;9.93;;;1.67;;
25854;SDS011;13680;49.936;11.344;2023-09-19T04:15:29;6.53;;;1.60;;
25854;SDS011;13680;49.936;11.344;2023-09-19T04:17:54;5.68;;;1.75;;
25854;SDS011;13680;49.936;11.344;2023-09-19T04:20:20;2.25;;;1.60;;
25854;SDS011;13680;49.936;11.344;2023-09-19T04:22:45;4.88;;;2.47;;
25854;SDS011;13680;49.936;11.344;2023-09-19T04:25:12;4.95;;;2.00;;
25854;SDS011;13680;49.936;11.344;2023-09-19T04:27:37;6.38;;;2.45;;
25854;SDS011;13680;49.936;11.344;2023-09-19T04:30:03;6.65;;;1.80;;
25854;SDS011;13680;49.936;11.344;2023-09-19T04:32:34;5.68;;;2.30;;
25854;SDS011;13680;49.936;11.344;2023-09-19T04:35:01;4.25;;;2.22;;
25854;SDS011;13680;49.936;11.344;2023-09-19T04:37:30;4.25;;;2.45;;
25854;SDS011;13680;49.936;11.344;2023-09-19T04:39:55;5.03;;;1.92;;
25854;SDS011;13680;49.936;11.344;2023-09-19T04:42:21;5.10;;;2.17;;
25854;SDS011;13680;49.936;11.344;2023-09-19T04:44:46;8.20;;;2.28;;
25854;SDS011;13680;49.936;11.344;2023-09-19T04:47:14;2.63;;;1.88;;
25854;SDS011;13680;49.936;11.344;2023-09-19T04:49:41;7.07;;;2.13;;
25854;SDS011;13680;49.936;11.344;2023-09-19T04:52:06;4.88;;;1.98;;
25854;SDS011;13680;49.936;11.344;2023-09-19T04:54:32;5.30;;;2.22;;
25854;SDS011;13680;49.936;11.344;2023-09-19T04:56:58;6.05;;;3.30;;
25854;SDS011;13680;49.936;11.344;2023-09-19T04:59:24;9.18;;;2.47;;
25854;SDS011;13680;49.936;11.344;2023-09-19T05:01:49;4.53;;;2.55;;
25854;SDS011;13680;49.936;11.344;2023-09-19T05:04:14;5.95;;;2.65;;
25854;SDS011;13680;49.936;11.344;2023-09-19T05:06:40;5.30;;;2.72;;
25854;SDS011;13680;49.936;11.344;2023-09-19T05:09:05;4.60;;;2.70;;
25854;SDS011;13680;49.936;11.344;2023-09-19T05:11:31;5.45;;;3.17;;
25854;SDS011;13680;49.936;11.344;2023-09-19T05:13:56;5.18;;;2.60;;
25854;SDS011;13680;49.936;11.344;2023-09-19T05:16:22;6.32;;;3.03;;
25854;SDS011;13680;49.936;11.344;2023-09-19T05:18:47;7.45;;;2.85;;
25854;SDS011;13680;49.936;11.344;2023-09-19T05:21:12;9.00;;;3.15;;
25854;SDS011;13680;49.936;11.344;2023-09-19T05:23:38;6.55;;;3.30;;
25854;SDS011;13680;49.936;11.344;2023-09-19T05:26:03;6.28;;;3.03;;
25854;SDS011;13680;49.936;11.344;2023-09-19T05:28:30;5.22;;;3.40;;
25854;SDS011;13680;49.936;11.344;2023-09-19T05:30:57;5.13;;;3.15;;
25854;SDS011;13680;49.936;11.344;2023-09-19T05:33:26;7.05;;;3.33;;
25854;SDS011;13680;49.936;11.344;2023-09-19T05:35:52;4.50;;;3.20;;
25854;SDS011;13680;49.936;11.344;2023-09-19T05:38:18;4.88;;;3.15;;
25854;SDS011;13680;49.936;11.344;2023-09-19T05:40:45;4.82;;;3.20;;
25854;SDS011;13680;49.936;11.344;2023-09-19T05:43:11;3.17;;;2.80;;
25854;SDS011;13680;49.936;11.344;2023-09-19T05:45:36;4.97;;;3.17;;
25854;SDS011;13680;49.936;11.344;2023-09-19T05:48:09;8.52;;;2.80;;
25854;SDS011;13680;49.936;11.344;2023-09-19T05:50:39;6.32;;;3.20;;
25854;SDS011;13680;49.936;11.344;2023-09-19T05:53:05;9.27;;;3.08;;
25854;SDS011;13680;49.936;11.344;2023-09-19T05:55:34;6.15;;;2.50;;
25854;SDS011;13680;49.936;11.344;2023-09-19T05:57:59;5.13;;;2.80;;
25854;SDS011;13680;49.936;11.344;2023-09-19T06:00:24;3.78;;;3.20;;
25854;SDS011;13680;49.936;11.344;2023-09-19T06:02:55;8.95;;;2.90;;
25854;SDS011;13680;49.936;11.344;2023-09-19T06:05:23;4.80;;;3.38;;
25854;SDS011;13680;49.936;11.344;2023-09-19T06:07:52;3.42;;;2.90;;
25854;SDS011;13680;49.936;11.344;2023-09-19T06:10:18;4.47;;;3.25;;
25854;SDS011;13680;49.936;11.344;2023-09-19T06:12:46;4.72;;;3.03;;
25854;SDS011;13680;49.936;11.344;2023-09-19T06:15:14;3.78;;;2.85;;
25854;SDS011;13680;49.936;11.344;2023-09-19T06:17:42;4.65;;;3.00;;
25854;SDS011;13680;49.936;11.344;2023-09-19T06:20:08;8.95;;;2.60;;
25854;SDS011;13680;49.936;11.344;2023-09-19T06:22:42;5.97;;;2.70;;
25854;SDS011;13680;49.936;11.344;2023-09-19T06:25:09;5.88;;;2.83;;
25854;SDS011;13680;49.936;11.344;2023-09-19T06:27:44;3.83;;;2.67;;
25854;SDS011;13680;49.936;11.344;2023-09-19T06:30:10;3.55;;;2.72;;
25854;SDS011;13680;49.936;11.344;2023-09-19T06:32:39;4.82;;;2.28;;
25854;SDS011;13680;49.936;11.344;2023-09-19T06:35:05;3.90;;;2.35;;
25854;SDS011;13680;49.936;11.344;2023-09-19T06:37:33;8.07;;;2.45;;
25854;SDS011;13680;49.936;11.344;2023-09-19T06:40:04;5.53;;;2.50;;
25854;SDS011;13680;49.936;11.344;2023-09-19T06:42:31;3.92;;;2.17;;
25854;SDS011;13680;49.936;11.344;2023-09-19T06:44:56;4.50;;;2.38;;
25854;SDS011;13680;49.936;11.344;2023-09-19T06:47:21;3.70;;;2.22;;
25854;SDS011;13680;49.936;11.344;2023-09-19T06:49:47;3.60;;;2.22;;
25854;SDS011;13680;49.936;11.344;2023-09-19T06:52:13;6.72;;;2.95;;
25854;SDS011;13680;49.936;11.344;2023-09-19T06:54:38;3.90;;;2.28;;
25854;SDS011;13680;49.936;11.344;2023-09-19T06:57:04;4.25;;;2.00;;
25854;SDS011;13680;49.936;11.344;2023-09-19T06:59:31;2.97;;;1.83;;
25854;SDS011;13680;49.936;11.344;2023-09-19T07:01:57;6.63;;;1.88;;
25854;SDS011;13680;49.936;11.344;2023-09-19T07:04:24;5.13;;;1.40;;
25854;SDS011;13680;49.936;11.344;2023-09-19T07:06:49;4.47;;;1.70;;
25854;SDS011;13680;49.936;11.344;2023-09-19T07:09:15;4.05;;;1.55;;
25854;SDS011;13680;49.936;11.344;2023-09-19T07:11:41;4.50;;;2.30;;
25854;SDS011;13680;49.936;11.344;2023-09-19T07:14:07;2.90;;;1.70;;
25854;SDS011;13680;49.936;11.344;2023-09-19T07:16:33;2.45;;;1.40;;
25854;SDS011;13680;49.936;11.344;2023-09-19T07:18:58;8.43;;;1.70;;
25854;SDS011;13680;49.936;11.344;2023-09-19T07:21:24;1.80;;;1.45;;
25854;SDS011;13680;49.936;11.344;2023-09-19T07:23:49;2.95;;;1.98;;
25854;SDS011;13680;49.936;11.344;2023-09-19T07:26:15;4.07;;;1.60;;
25854;SDS011;13680;49.936;11.344;2023-09-19T07:28:41;3.85;;;1.90;;
25854;SDS011;13680;49.936;11.344;2023-09-19T07:31:06;4.55;;;1.70;;
25854;SDS011;13680;49.936;11.344;2023-09-19T07:33:35;3.10;;;1.73;;
25854;SDS011;13680;49.936;11.344;2023-09-19T07:36:01;2.95;;;1.73;;
25854;SDS011;13680;49.936;11.344;2023-09-19T07:38:26;5.70;;;1.80;;
25854;SDS011;13680;49.936;11.344;2023-09-19T07:40:52;6.32;;;1.63;;
25854;SDS011;13680;49.936;11.344;2023-09-19T07:43:17;3.00;;;1.70;;
25854;SDS011;13680;49.936;11.344;2023-09-19T07:45:43;4.53;;;1.90;;
25854;SDS011;13680;49.936;11.344;2023-09-19T07:48:08;4.40;;;1.88;;
25854;SDS011;13680;49.936;11.344;2023-09-19T07:50:39;3.53;;;1.60;;
25854;SDS011;13680;49.936;11.344;2023-09-19T07:53:05;5.22;;;1.75;;
25854;SDS011;13680;49.936;11.344;2023-09-19T07:55:31;3.58;;;1.83;;
25854;SDS011;13680;49.936;11.344;2023-09-19T07:57:58;4.18;;;1.38;;
25854;SDS011;13680;49.936;11.344;2023-09-19T08:00:24;2.28;;;1.40;;
25854;SDS011;13680;49.936;11.344;2023-09-19T08:02:49;3.45;;;1.80;;
25854;SDS011;13680;49.936;11.344;2023-09-19T08:05:17;4.40;;;1.98;;
25854;SDS011;13680;49.936;11.344;2023-09-19T08:07:44;4.03;;;1.80;;
25854;SDS011;13680;49.936;11.344;2023-09-19T08:10:13;3.88;;;1.77;;
25854;SDS011;13680;49.936;11.344;2023-09-19T08:12:40;3.53;;;1.50;;
25854;SDS011;13680;49.936;11.344;2023-09-19T08:15:18;4.95;;;1.70;;
25854;SDS011;13680;49.936;11.344;2023-09-19T08:17:45;3.88;;;1.58;;
25854;SDS011;13680;49.936;11.344;2023-09-19T08:20:11;3.03;;;1.58;;
25854;SDS011;13680;49.936;11.344;2023-09-19T08:22:48;2.97;;;1.60;;
25854;SDS011;13680;49.936;11.344;2023-09-19T08:25:17;3.78;;;1.85;;
25854;SDS011;13680;49.936;11.344;2023-09-19T08:27:43;3.20;;;1.55;;
25854;SDS011;13680;49.936;11.344;2023-09-19T08:30:12;4.25;;;1.58;;
25854;SDS011;13680;49.936;11.344;2023-09-19T08:32:39;3.85;;;1.80;;
25854;SDS011;13680;49.936;11.344;2023-09-19T08:35:06;2.30;;;1.40;;
25854;SDS011;13680;49.936;11.344;2023-09-19T08:37:32;5.03;;;1.48;;
25854;SDS011;13680;49.936;11.344;2023-09-19T08:39:57;4.15;;;1.65;;
25854;SDS011;13680;49.936;11.344;2023-09-19T08:42:23;4.82;;;1.85;;
25854;SDS011;13680;49.936;11.344;2023-09-19T08:44:50;4.55;;;1.60;;
25854;SDS011;13680;49.936;11.344;2023-09-19T08:47:15;3.92;;;1.60;;
25854;SDS011;13680;49.936;11.344;2023-09-19T08:52:41;5.05;;;1.60;;
25854;SDS011;13680;49.936;11.344;2023-09-19T08:55:07;4.18;;;1.55;;
25854;SDS011;13680;49.936;11.344;2023-09-19T08:57:36;2.45;;;1.20;;
25854;SDS011;13680;49.936;11.344;2023-09-19T09:00:06;3.90;;;1.35;;
25854;SDS011;13680;49.936;11.344;2023-09-19T09:02:40;4.22;;;1.52;;
25854;SDS011;13680;49.936;11.344;2023-09-19T09:05:08;2.13;;;1.20;;
25854;SDS011;13680;49.936;11.344;2023-09-19T09:07:36;3.92;;;1.10;;
25854;SDS011;13680;49.936;11.344;2023-09-19T09:10:02;4.20;;;1.00;;
25854;SDS011;13680;49.936;11.344;2023-09-19T09:12:28;1.65;;;0.93;;
25854;SDS011;13680;49.936;11.344;2023-09-19T09:14:55;1.75;;;1.02;;
25854;SDS011;13680;49.936;11.344;2023-09-19T09:17:22;2.75;;;1.52;;
25854;SDS011;13680;49.936;11.344;2023-09-19T09:19:51;3.95;;;1.05;;
25854;SDS011;13680;49.936;11.344;2023-09-19T09:22:18;1.88;;;1.10;;
25854;SDS011;13680;49.936;11.344;2023-09-19T09:27:26;5.80;;;1.30;;
25854;SDS011;13680;49.936;11.344;2023-09-19T09:29:52;2.95;;;1.15;;
25854;SDS011;13680;49.936;11.344;2023-09-19T09:32:24;4.60;;;1.40;;
25854;SDS011;13680;49.936;11.344;2023-09-19T09:35:03;11.30;;;1.30;;
25854;SDS011;13680;49.936;11.344;2023-09-19T09:37:35;2.45;;;1.40;;
25854;SDS011;13680;49.936;11.344;2023-09-19T09:40:03;5.07;;;1.38;;
25854;SDS011;13680;49.936;11.344;2023-09-19T09:42:41;3.80;;;1.20;;
25854;SDS011;13680;49.936;11.344;2023-09-19T09:45:18;2.40;;;1.50;;
25854;SDS011;13680;49.936;11.344;2023-09-19T09:47:53;2.67;;;1.10;;
25854;SDS011;13680;49.936;11.344;2023-09-19T09:50:31;3.85;;;1.55;;
25854;SDS011;13680;49.936;11.344;2023-09-19T09:53:29;2.47;;;1.35;;
25854;SDS011;13680;49.936;11.344;2023-09-19T09:56:06;3.60;;;1.42;;
25854;SDS011;13680;49.936;11.344;2023-09-19T09:59:07;5.38;;;1.35;;
25854;SDS011;13680;49.936;11.344;2023-09-19T10:01:28;2.85;;;1.38;;
25854;SDS011;13680;49.936;11.344;2023-09-19T10:04:11;5.72;;;1.45;;
25854;SDS011;13680;49.936;11.344;2023-09-19T10:06:54;2.85;;;1.27;;
25854;SDS011;13680;49.936;11.344;2023-09-19T10:09:20;2.40;;;1.30;;
25854;SDS011;13680;49.936;11.344;2023-09-19T10:11:49;2.17;;;1.17;;
25854;SDS011;13680;49.936;11.344;2023-09-19T10:14:29;2.97;;;1.10;;
25854;SDS011;13680;49.936;11.344;2023-09-19T10:16:56;3.35;;;1.25;;
25854;SDS011;13680;49.936;11.344;2023-09-19T10:22:24;4.43;;;1.13;;
25854;SDS011;13680;49.936;11.344;2023-09-19T10:24:53;4.32;;;1.15;;
25854;SDS011;13680;49.936;11.344;2023-09-19T10:27:20;2.13;;;1.15;;
25854;SDS011;13680;49.936;11.344;2023-09-19T10:29:48;2.88;;;1.30;;
25854;SDS011;13680;49.936;11.344;2023-09-19T10:32:19;4.35;;;1.40;;
25854;SDS011;13680;49.936;11.344;2023-09-19T10:34:46;3.40;;;1.38;;
25854;SDS011;13680;49.936;11.344;2023-09-19T10:37:12;3.28;;;1.40;;
25854;SDS011;13680;49.936;11.344;2023-09-19T10:39:39;4.55;;;1.50;;
25854;SDS011;13680;49.936;11.344;2023-09-19T10:42:06;3.78;;;1.20;;
25854;SDS011;13680;49.936;11.344;2023-09-19T10:44:33;3.47;;;1.25;;
25854;SDS011;13680;49.936;11.344;2023-09-19T10:47:08;7.93;;;1.20;;
25854;SDS011;13680;49.936;11.344;2023-09-19T10:49:34;3.63;;;1.10;;
25854;SDS011;13680;49.936;11.344;2023-09-19T10:52:00;3.65;;;1.17;;
25854;SDS011;13680;49.936;11.344;2023-09-19T10:54:28;3.58;;;1.00;;
25854;SDS011;13680;49.936;11.344;2023-09-19T10:56:59;3.05;;;1.15;;
25854;SDS011;13680;49.936;11.344;2023-09-19T10:59:25;5.20;;;1.60;;
25854;SDS011;13680;49.936;11.344;2023-09-19T11:01:59;3.95;;;1.23;;
25854;SDS011;13680;49.936;11.344;2023-09-19T11:04:40;2.72;;;1.00;;
25854;SDS011;13680;49.936;11.344;2023-09-19T11:07:06;6.10;;;1.30;;
25854;SDS011;13680;49.936;11.344;2023-09-19T11:09:44;5.43;;;1.05;;
25854;SDS011;13680;49.936;11.344;2023-09-19T11:15:02;5.70;;;1.48;;
25854;SDS011;13680;49.936;11.344;2023-09-19T11:17:33;3.00;;;1.20;;
25854;SDS011;13680;49.936;11.344;2023-09-19T11:30:41;3.53;;;1.42;;
25854;SDS011;13680;49.936;11.344;2023-09-19T11:33:20;4.30;;;1.30;;
25854;SDS011;13680;49.936;11.344;2023-09-19T11:41:36;3.25;;;1.33;;
25854;SDS011;13680;49.936;11.344;2023-09-19T11:49:16;5.22;;;1.08;;
25854;SDS011;13680;49.936;11.344;2023-09-19T11:51:48;3.80;;;1.08;;
25854;SDS011;13680;49.936;11.344;2023-09-19T11:54:17;4.22;;;1.27;;
25854;SDS011;13680;49.936;11.344;2023-09-19T11:56:44;3.05;;;1.02;;
25854;SDS011;13680;49.936;11.344;2023-09-19T11:59:10;4.93;;;1.55;;
25854;SDS011;13680;49.936;11.344;2023-09-19T12:01:36;4.28;;;1.35;;
25854;SDS011;13680;49.936;11.344;2023-09-19T12:04:05;2.70;;;1.08;;
25854;SDS011;13680;49.936;11.344;2023-09-19T12:06:35;5.95;;;1.48;;
25854;SDS011;13680;49.936;11.344;2023-09-19T12:09:03;4.97;;;1.40;;
25854;SDS011;13680;49.936;11.344;2023-09-19T12:11:32;3.13;;;1.00;;
25854;SDS011;13680;49.936;11.344;2023-09-19T12:13:58;4.63;;;1.10;;
25854;SDS011;13680;49.936;11.344;2023-09-19T12:16:26;3.10;;;1.33;;
25854;SDS011;13680;49.936;11.344;2023-09-19T12:18:55;4.05;;;1.02;;
25854;SDS011;13680;49.936;11.344;2023-09-19T12:24:04;5.00;;;1.17;;
25854;SDS011;13680;49.936;11.344;2023-09-19T12:26:41;3.50;;;1.00;;
25854;SDS011;13680;49.936;11.344;2023-09-19T12:29:15;4.38;;;0.93;;
25854;SDS011;13680;49.936;11.344;2023-09-19T12:31:52;2.17;;;1.10;;
25854;SDS011;13680;49.936;11.344;2023-09-19T12:34:31;2.55;;;1.00;;
25854;SDS011;13680;49.936;11.344;2023-09-19T12:39:52;3.22;;;0.93;;
25854;SDS011;13680;49.936;11.344;2023-09-19T12:42:23;3.80;;;1.10;;
25854;SDS011;13680;49.936;11.344;2023-09-19T12:44:54;4.85;;;1.05;;
25854;SDS011;13680;49.936;11.344;2023-09-19T12:47:22;5.32;;;1.60;;
25854;SDS011;13680;49.936;11.344;2023-09-19T12:50:08;2.30;;;1.00;;
25854;SDS011;13680;49.936;11.344;2023-09-19T12:52:45;1.50;;;0.90;;
25854;SDS011;13680;49.936;11.344;2023-09-19T12:55:21;4.20;;;0.90;;
25854;SDS011;13680;49.936;11.344;2023-09-19T12:58:21;2.05;;;1.08;;
25854;SDS011;13680;49.936;11.344;2023-09-19T13:00:42;3.72;;;1.02;;
25854;SDS011;13680;49.936;11.344;2023-09-19T13:03:16;4.22;;;0.98;;
25854;SDS011;13680;49.936;11.344;2023-09-19T13:05:56;3.30;;;1.10;;
25854;SDS011;13680;49.936;11.344;2023-09-19T13:08:28;2.53;;;1.02;;
25854;SDS011;13680;49.936;11.344;2023-09-19T13:11:04;2.90;;;1.17;;
25854;SDS011;13680;49.936;11.344;2023-09-19T13:25:13;4.10;;;1.60;;
25854;SDS011;13680;49.936;11.344;2023-09-19T13:27:43;2.05;;;1.15;;
25854;SDS011;13680;49.936;11.344;2023-09-19T13:30:10;2.97;;;1.02;;
25854;SDS011;13680;49.936;11.344;2023-09-19T13:32:37;2.60;;;1.10;;
25854;SDS011;13680;49.936;11.344;2023-09-19T13:35:03;4.63;;;1.35;;
25854;SDS011;13680;49.936;11.344;2023-09-19T13:37:30;3.92;;;1.20;;
25854;SDS011;13680;49.936;11.344;2023-09-19T13:40:00;4.35;;;1.10;;
25854;SDS011;13680;49.936;11.344;2023-09-19T13:42:25;2.78;;;1.20;;
25854;SDS011;13680;49.936;11.344;2023-09-19T13:44:54;2.75;;;1.10;;
25854;SDS011;13680;49.936;11.344;2023-09-19T13:47:21;3.70;;;1.00;;
25854;SDS011;13680;49.936;11.344;2023-09-19T13:49:49;2.28;;;0.90;;
25854;SDS011;13680;49.936;11.344;2023-09-19T13:52:18;4.10;;;1.00;;
25854;SDS011;13680;49.936;11.344;2023-09-19T13:54:43;3.67;;;1.10;;
25854;SDS011;13680;49.936;11.344;2023-09-19T13:57:09;2.05;;;1.10;;
25854;SDS011;13680;49.936;11.344;2023-09-19T13:59:35;3.38;;;1.45;;
25854;SDS011;13680;49.936;11.344;2023-09-19T14:02:00;2.15;;;0.95;;
25854;SDS011;13680;49.936;11.344;2023-09-19T14:04:27;2.97;;;1.30;;
25854;SDS011;13680;49.936;11.344;2023-09-19T14:06:53;2.75;;;1.20;;
25854;SDS011;13680;49.936;11.344;2023-09-19T14:09:19;3.55;;;1.27;;
25854;SDS011;13680;49.936;11.344;2023-09-19T14:11:44;4.22;;;1.20;;
25854;SDS011;13680;49.936;11.344;2023-09-19T14:14:12;6.57;;;2.20;;
25854;SDS011;13680;49.936;11.344;2023-09-19T14:16:37;5.15;;;1.40;;
25854;SDS011;13680;49.936;11.344;2023-09-19T14:19:04;4.53;;;1.10;;
25854;SDS011;13680;49.936;11.344;2023-09-19T14:21:30;3.97;;;1.13;;
25854;SDS011;13680;49.936;11.344;2023-09-19T14:23:55;2.88;;;0.90;;
25854;SDS011;13680;49.936;11.344;2023-09-19T14:26:21;4.97;;;1.38;;
25854;SDS011;13680;49.936;11.344;2023-09-19T14:28:48;3.63;;;1.33;;
25854;SDS011;13680;49.936;11.344;2023-09-19T14:31:13;6.32;;;1.30;;
25854;SDS011;13680;49.936;11.344;2023-09-19T14:33:40;3.63;;;1.17;;
25854;SDS011;13680;49.936;11.344;2023-09-19T14:36:07;3.67;;;1.23;;
25854;SDS011;13680;49.936;11.344;2023-09-19T14:38:34;5.35;;;1.38;;
25854;SDS011;13680;49.936;11.344;2023-09-19T14:41:01;3.95;;;1.10;;
25854;SDS011;13680;49.936;11.344;2023-09-19T14:43:27;2.50;;;1.10;;
25854;SDS011;13680;49.936;11.344;2023-09-19T14:45:55;4.13;;;1.10;;
25854;SDS011;13680;49.936;11.344;2023-09-19T14:48:22;2.72;;;1.08;;
25854;SDS011;13680;49.936;11.344;2023-09-19T14:50:51;2.33;;;1.20;;
25854;SDS011;13680;49.936;11.344;2023-09-19T14:53:17;3.17;;;1.00;;
25854;SDS011;13680;49.936;11.344;2023-09-19T14:55:43;2.63;;;1.20;;
25854;SDS011;13680;49.936;11.344;2023-09-19T14:58:10;5.03;;;1.17;;
25854;SDS011;13680;49.936;11.344;2023-09-19T15:00:36;3.75;;;1.40;;
25854;SDS011;13680;49.936;11.344;2023-09-19T15:03:02;4.32;;;1.33;;
25854;SDS011;13680;49.936;11.344;2023-09-19T15:05:27;4.82;;;1.10;;
25854;SDS011;13680;49.936;11.344;2023-09-19T15:07:55;4.38;;;1.10;;
25854;SDS011;13680;49.936;11.344;2023-09-19T15:10:22;4.00;;;1.10;;
25854;SDS011;13680;49.936;11.344;2023-09-19T15:12:47;5.80;;;1.38;;
25854;SDS011;13680;49.936;11.344;2023-09-19T15:15:13;3.63;;;1.88;;
25854;SDS011;13680;49.936;11.344;2023-09-19T15:17:38;4.68;;;1.52;;
25854;SDS011;13680;49.936;11.344;2023-09-19T15:20:04;5.10;;;1.20;;
25854;SDS011;13680;49.936;11.344;2023-09-19T15:22:32;4.30;;;1.30;;
25854;SDS011;13680;49.936;11.344;2023-09-19T15:24:59;2.85;;;1.10;;
25854;SDS011;13680;49.936;11.344;2023-09-19T15:27:25;2.42;;;1.20;;
25854;SDS011;13680;49.936;11.344;2023-09-19T15:29:50;6.55;;;1.42;;
25854;SDS011;13680;49.936;11.344;2023-09-19T15:32:15;3.80;;;1.30;;
25854;SDS011;13680;49.936;11.344;2023-09-19T15:34:41;2.83;;;1.33;;
25854;SDS011;13680;49.936;11.344;2023-09-19T15:37:06;3.15;;;1.40;;
25854;SDS011;13680;49.936;11.344;2023-09-19T15:39:31;2.35;;;0.85;;
25854;SDS011;13680;49.936;11.344;2023-09-19T15:42:02;5.20;;;1.17;;
25854;SDS011;13680;49.936;11.344;2023-09-19T15:44:27;8.32;;;1.23;;
25854;SDS011;13680;49.936;11.344;2023-09-19T15:46:53;5.85;;;1.45;;
25854;SDS011;13680;49.936;11.344;2023-09-19T15:49:18;8.00;;;1.40;;
25854;SDS011;13680;49.936;11.344;2023-09-19T15:51:44;3.75;;;1.05;;
25854;SDS011;13680;49.936;11.344;2023-09-19T15:54:11;3.22;;;1.23;;